createdAt,value
2022-08-07T00:01:43.895Z,3.42
2022-08-07T00:04:04.587Z,4.43
2022-08-07T00:06:33.895Z,4.63
2022-08-07T00:09:16.241Z,3.97
2022-08-07T00:11:54.011Z,6.90
2022-08-07T00:14:25.264Z,7.75
2022-08-07T00:16:53.227Z,4.93
2022-08-07T00:19:21.308Z,3.72
2022-08-07T00:21:57.083Z,3.30
2022-08-07T00:24:31.547Z,4.03
2022-08-07T00:27:07.524Z,3.25
2022-08-07T00:29:37.219Z,7.30
2022-08-07T00:32:05.883Z,5.30
2022-08-07T00:34:35.410Z,5.55
2022-08-07T00:37:05.093Z,5.05
2022-08-07T00:39:33.028Z,3.67
2022-08-07T00:42:02.007Z,6.25
2022-08-07T00:44:33.093Z,3.50
2022-08-07T00:47:00.743Z,3.60
2022-08-07T00:50:20.234Z,4.40
2022-08-07T00:52:19.846Z,2.72
2022-08-07T00:54:53.932Z,4.78
2022-08-07T00:57:22.308Z,3.90
2022-08-07T00:59:49.958Z,5.13
2022-08-07T01:02:28.419Z,3.00
2022-08-07T01:04:58.804Z,8.15
2022-08-07T01:07:27.569Z,4.47
2022-08-07T01:10:05.227Z,4.53
2022-08-07T01:12:37.916Z,3.70
2022-08-07T01:15:06.486Z,4.53
2022-08-07T01:17:40.041Z,5.35
2022-08-07T01:20:16.889Z,2.63
2022-08-07T01:22:47.025Z,4.55
2022-08-07T01:25:54.398Z,2.78
2022-08-07T01:28:13.249Z,2.58
2022-08-07T01:30:40.852Z,5.05
2022-08-07T01:33:09.651Z,3.53
2022-08-07T01:35:54.450Z,3.00
2022-08-07T01:38:26.020Z,3.30
2022-08-07T01:40:58.659Z,3.35
2022-08-07T01:43:26.779Z,3.08
2022-08-07T01:46:02.844Z,6.22
2022-08-07T01:48:32.721Z,2.53
2022-08-07T01:51:24.331Z,3.40
2022-08-07T01:54:11.802Z,2.45
2022-08-07T01:56:44.300Z,2.70
2022-08-07T01:59:19.614Z,2.58
2022-08-07T02:02:02.613Z,2.50
2022-08-07T02:04:36.168Z,1.50
2022-08-07T02:07:05.398Z,5.65
2022-08-07T02:09:53.141Z,2.90
2022-08-07T02:12:29.248Z,1.55
2022-08-07T02:14:58.997Z,3.67
2022-08-07T02:17:31.826Z,4.85
2022-08-07T02:20:09.905Z,2.80
2022-08-07T02:22:45.432Z,2.92
2022-08-07T02:25:17.521Z,7.10
2022-08-07T02:27:51.918Z,3.35
2022-08-07T02:30:22.164Z,2.30
2022-08-07T02:33:07.282Z,2.15
2022-08-07T02:36:30.568Z,2.78
2022-08-07T02:38:28.183Z,3.95
2022-08-07T02:40:59.919Z,3.22
2022-08-07T02:43:28.760Z,3.47
2022-08-07T02:46:02.185Z,2.10
2022-08-07T02:48:30.497Z,2.45
2022-08-07T02:50:59.438Z,3.00
2022-08-07T02:53:29.769Z,6.47
2022-08-07T02:56:03.644Z,2.50
2022-08-07T02:58:33.310Z,3.08
2022-08-07T03:01:01.942Z,4.57
2022-08-07T03:03:49.423Z,2.25
2022-08-07T03:06:25.975Z,2.95
2022-08-07T03:09:00.189Z,4.85
2022-08-07T03:11:28.147Z,3.50
2022-08-07T03:13:57.451Z,3.30
2022-08-07T03:18:56.356Z,3.75
2022-08-07T03:21:24.635Z,2.80
2022-08-07T03:24:19.903Z,2.85
2022-08-07T03:26:43.043Z,2.78
2022-08-07T03:29:27.644Z,2.83
2022-08-07T03:31:56.682Z,2.97
2022-08-07T03:34:27.429Z,3.95
2022-08-07T03:36:57.327Z,2.50
2022-08-07T03:39:59.740Z,2.60
2022-08-07T03:42:12.420Z,5.30
2022-08-07T03:44:39.863Z,5.85
2022-08-07T03:47:13.483Z,3.55
2022-08-07T03:49:52.121Z,2.70
2022-08-07T03:52:26.100Z,2.83
2022-08-07T03:54:59.052Z,4.63
2022-08-07T03:58:35.502Z,3.83
2022-08-07T04:00:30.306Z,2.95
2022-08-07T04:02:59.111Z,4.13
2022-08-07T04:05:39.593Z,2.67
2022-08-07T04:08:12.359Z,2.58
2022-08-07T04:10:53.619Z,5.28
2022-08-07T04:14:10.208Z,6.70
2022-08-07T04:16:30.134Z,3.47
2022-08-07T04:19:03.912Z,3.28
2022-08-07T04:21:39.923Z,12.73
2022-08-07T04:24:30.871Z,4.25
2022-08-07T04:27:06.157Z,4.43
2022-08-07T04:29:57.195Z,5.75
2022-08-07T04:32:34.682Z,3.22
2022-08-07T04:35:04.051Z,7.22
2022-08-07T04:37:52.807Z,5.75
2022-08-07T04:40:21.095Z,3.08
2022-08-07T04:42:51.706Z,5.45
2022-08-07T04:45:44.429Z,4.10
2022-08-07T04:48:25.441Z,3.42
2022-08-07T04:51:03.360Z,3.15
2022-08-07T04:54:01.486Z,2.67
2022-08-07T04:58:16.966Z,4.30
2022-08-07T05:00:11.024Z,2.90
2022-08-07T05:02:28.706Z,5.15
2022-08-07T05:05:53.843Z,2.38
2022-08-07T05:10:46.685Z,3.70
2022-08-07T05:14:56.260Z,3.78
2022-08-07T05:16:06.764Z,5.40
2022-08-07T05:18:36.656Z,3.50
2022-08-07T05:21:09.510Z,5.00
2022-08-07T05:23:43.169Z,3.30
2022-08-07T05:26:23.711Z,6.38
2022-08-07T05:28:56.759Z,5.15
2022-08-07T05:31:35.213Z,4.83
2022-08-07T05:34:10.937Z,4.18
2022-08-07T05:36:40.167Z,8.30
2022-08-07T05:40:16.569Z,5.28
2022-08-07T05:42:01.434Z,7.55
2022-08-07T05:44:30.838Z,6.18
2022-08-07T05:47:00.306Z,6.22
2022-08-07T05:49:40.779Z,6.68
2022-08-07T05:52:11.681Z,6.65
2022-08-07T05:54:53.499Z,6.78
2022-08-07T05:57:26.718Z,11.07
2022-08-07T05:59:58.595Z,8.95
2022-08-07T06:02:28.757Z,7.93
2022-08-07T06:05:00.787Z,7.03
2022-08-07T06:08:12.985Z,8.63
2022-08-07T06:10:16.047Z,9.32
2022-08-07T06:12:43.309Z,9.48
2022-08-07T06:15:15.371Z,6.57
2022-08-07T06:17:53.706Z,6.28
2022-08-07T06:20:50.067Z,11.55
2022-08-07T06:23:46.791Z,7.18
2022-08-07T06:26:00.767Z,6.90
2022-08-07T06:28:28.785Z,7.25
2022-08-07T06:30:56.396Z,10.57
2022-08-07T06:33:26.162Z,11.73
2022-08-07T06:36:12.360Z,12.57
2022-08-07T06:38:59.569Z,8.20
2022-08-07T06:42:01.226Z,8.25
2022-08-07T06:44:22.588Z,10.82
2022-08-07T06:46:53.458Z,6.55
2022-08-07T06:49:27.238Z,10.75
2022-08-07T06:51:59.481Z,8.82
2022-08-07T06:55:33.158Z,8.68
2022-08-07T06:57:39.426Z,9.77
2022-08-07T07:00:18.069Z,7.70
2022-08-07T07:02:53.354Z,9.63
2022-08-07T07:06:02.600Z,9.93
2022-08-07T07:08:18.470Z,10.40
2022-08-07T07:10:56.427Z,8.25
2022-08-07T07:13:56.185Z,8.23
2022-08-07T07:16:19.939Z,13.73
2022-08-07T07:18:50.822Z,8.02
2022-08-07T07:21:20.075Z,8.38
2022-08-07T07:24:08.992Z,6.97
2022-08-07T07:26:37.192Z,6.45
2022-08-07T07:29:40.048Z,8.13
2022-08-07T07:31:57.707Z,6.00
2022-08-07T07:34:31.241Z,8.75
2022-08-07T07:39:52.223Z,5.75
2022-08-07T07:42:32.538Z,7.68
2022-08-07T07:45:04.988Z,4.35
2022-08-07T07:47:52.029Z,5.75
2022-08-07T07:50:34.945Z,5.20
2022-08-07T07:53:13.603Z,8.00
2022-08-07T07:55:57.840Z,4.60
2022-08-07T07:58:30.888Z,3.40
2022-08-07T08:02:03.022Z,2.97
2022-08-07T08:04:09.572Z,3.63
2022-08-07T08:06:39.840Z,3.72
2022-08-07T08:09:08.028Z,5.32
2022-08-07T08:11:59.492Z,4.15
2022-08-07T08:14:24.683Z,4.22
2022-08-07T08:16:54.958Z,9.55
2022-08-07T08:20:16.313Z,3.30
2022-08-07T08:22:33.215Z,7.13
2022-08-07T08:25:41.785Z,5.50
2022-08-07T08:31:06.101Z,4.57
2022-08-07T08:33:55.739Z,4.35
2022-08-07T08:36:29.569Z,6.43
2022-08-07T08:41:56.657Z,6.80
2022-08-07T08:44:29.698Z,4.35
2022-08-07T08:47:01.781Z,3.75
2022-08-07T08:49:32.783Z,4.40
2022-08-07T08:52:14.525Z,5.32
2022-08-07T08:54:48.888Z,3.70
2022-08-07T08:57:24.735Z,5.43
2022-08-07T08:59:54.636Z,4.57
2022-08-07T09:02:40.426Z,5.05
2022-08-07T09:05:36.772Z,3.20
2022-08-07T09:08:08.073Z,4.18
2022-08-07T09:10:48.026Z,4.38
2022-08-07T09:13:37.771Z,3.72
2022-08-07T09:16:30.398Z,2.97
2022-08-07T09:19:00.927Z,3.33
2022-08-07T09:22:10.354Z,2.67
2022-08-07T09:24:54.990Z,5.43
2022-08-07T09:27:59.984Z,7.97
2022-08-07T09:30:54.870Z,6.00
2022-08-07T09:33:56.871Z,4.60
2022-08-07T09:36:42.978Z,3.88
2022-08-07T09:39:52.715Z,9.80
2022-08-07T09:42:33.629Z,3.38
2022-08-07T09:47:23.982Z,4.25
2022-08-07T09:48:20.076Z,2.70
2022-08-07T09:51:14.524Z,3.78
2022-08-07T09:54:02.382Z,3.28
2022-08-07T09:56:42.261Z,2.78
2022-08-07T09:59:14.119Z,2.95
2022-08-07T10:01:52.089Z,5.03
2022-08-07T10:04:46.222Z,4.43
2022-08-07T10:07:53.040Z,5.18
2022-08-07T10:10:30.118Z,2.13
2022-08-07T10:13:15.704Z,2.88
2022-08-07T10:16:03.799Z,4.38
2022-08-07T10:18:47.655Z,3.13
2022-08-07T10:22:12.094Z,7.13
2022-08-07T10:24:46.054Z,2.40
2022-08-07T10:27:46.305Z,2.55
2022-08-07T10:30:19.748Z,3.53
2022-08-07T10:32:59.818Z,2.17
2022-08-07T10:35:56.534Z,2.83
2022-08-07T10:38:42.061Z,3.22
2022-08-07T10:41:52.865Z,5.70
2022-08-07T10:44:38.044Z,2.67
2022-08-07T10:47:14.146Z,2.00
2022-08-07T10:49:50.902Z,3.20
2022-08-07T10:52:42.752Z,1.88
2022-08-07T10:55:37.068Z,5.38
2022-08-07T10:58:31.869Z,2.33
2022-08-07T11:01:11.541Z,5.65
2022-08-07T11:03:52.534Z,5.15
2022-08-07T11:06:45.572Z,2.70
2022-08-07T11:10:09.237Z,2.45
2022-08-07T11:12:19.160Z,1.98
2022-08-07T11:15:01.588Z,4.03
2022-08-07T11:17:43.310Z,2.20
2022-08-07T11:20:22.530Z,2.58
2022-08-07T11:23:02.853Z,2.25
2022-08-07T11:25:42.591Z,3.15
2022-08-07T11:28:24.796Z,3.10
2022-08-07T11:30:52.523Z,3.17
2022-08-07T11:33:59.082Z,2.95
2022-08-07T11:36:31.260Z,2.45
2022-08-07T11:39:20.348Z,3.10
2022-08-07T11:42:08.037Z,3.13
2022-08-07T11:44:58.205Z,1.88
2022-08-07T11:47:56.005Z,4.80
2022-08-07T11:50:57.821Z,4.03
2022-08-07T11:53:28.511Z,2.47
2022-08-07T11:56:26.640Z,2.10
2022-08-07T11:58:57.868Z,5.00
2022-08-07T12:02:00.726Z,3.40
2022-08-07T12:04:34.876Z,3.55
2022-08-07T12:07:09.134Z,2.08
2022-08-07T12:10:12.566Z,2.13
2022-08-07T12:12:45.970Z,1.73
2022-08-07T12:15:17.443Z,2.72
2022-08-07T12:18:08.251Z,2.00
2022-08-07T12:20:49.272Z,1.83
2022-08-07T12:24:04.825Z,3.42
2022-08-07T12:26:40.683Z,2.13
2022-08-07T12:29:20.323Z,2.20
2022-08-07T12:32:18.241Z,3.80
2022-08-07T12:34:49.125Z,2.15
2022-08-07T12:37:23.288Z,2.75
2022-08-07T12:39:57.366Z,1.88
2022-08-07T12:42:32.192Z,1.67
2022-08-07T12:45:04.328Z,2.05
2022-08-07T12:47:43.960Z,3.00
2022-08-07T12:50:39.396Z,2.28
2022-08-07T12:53:18.073Z,1.92
2022-08-07T12:56:09.323Z,3.75
2022-08-07T12:58:42.925Z,2.38
2022-08-07T13:01:32.909Z,4.35
2022-08-07T13:04:06.808Z,2.92
2022-08-07T13:07:00.265Z,2.65
2022-08-07T13:10:28.550Z,3.78
2022-08-07T13:12:30.243Z,2.28
2022-08-07T13:15:06.991Z,3.47
2022-08-07T13:17:46.790Z,2.08
2022-08-07T13:20:27.769Z,2.63
2022-08-07T13:23:59.926Z,5.20
2022-08-07T13:26:15.719Z,3.53
2022-08-07T13:28:58.322Z,3.40
2022-08-07T13:31:45.916Z,4.13
2022-08-07T13:34:35.865Z,4.05
2022-08-07T13:37:19.629Z,4.32
2022-08-07T13:40:36.072Z,4.40
2022-08-07T13:42:44.996Z,5.95
2022-08-07T13:46:07.131Z,4.00
2022-08-07T13:48:06.480Z,2.80
2022-08-07T13:50:44.972Z,3.90
2022-08-07T13:53:59.339Z,4.18
2022-08-07T13:56:35.887Z,4.53
2022-08-07T13:59:22.554Z,3.60
2022-08-07T14:02:04.435Z,2.72
2022-08-07T14:04:35.709Z,4.65
2022-08-07T14:07:10.135Z,4.05
2022-08-07T14:10:02.432Z,2.58
2022-08-07T14:12:36.910Z,4.18
2022-08-07T14:15:10.396Z,3.35
2022-08-07T14:18:16.121Z,3.25
2022-08-07T14:22:39.680Z,2.85
2022-08-07T14:23:58.965Z,4.45
2022-08-07T14:26:08.537Z,4.30
2022-08-07T14:28:57.300Z,3.15
2022-08-07T14:31:42.985Z,3.28
2022-08-07T14:34:25.821Z,3.38
2022-08-07T14:36:56.677Z,2.78
2022-08-07T14:40:17.553Z,2.47
2022-08-07T14:42:20.287Z,2.25
2022-08-07T14:44:53.574Z,2.72
2022-08-07T14:47:23.125Z,2.90
2022-08-07T14:49:57.551Z,2.72
2022-08-07T14:52:28.709Z,2.25
2022-08-07T14:54:58.669Z,2.97
2022-08-07T15:00:29.721Z,2.30
2022-08-07T15:03:17.445Z,2.17
2022-08-07T15:05:54.809Z,2.33
2022-08-07T15:08:33.188Z,3.75
2022-08-07T15:11:07.423Z,2.50
2022-08-07T15:13:38.942Z,3.47
2022-08-07T15:16:14.708Z,2.65
2022-08-07T15:18:47.632Z,2.03
2022-08-07T15:21:58.706Z,2.22
2022-08-07T15:25:13.285Z,2.20
2022-08-07T15:27:15.774Z,2.50
2022-08-07T15:30:06.818Z,4.63
2022-08-07T15:32:40.108Z,2.22
2022-08-07T15:35:40.690Z,2.45
2022-08-07T15:38:30.319Z,4.50
2022-08-07T15:41:23.639Z,2.30
2022-08-07T15:43:59.327Z,5.35
2022-08-07T15:46:39.235Z,1.75
2022-08-07T15:49:18.625Z,2.15
2022-08-07T15:54:27.460Z,4.18
2022-08-07T15:56:57.578Z,5.43
2022-08-07T15:59:40.069Z,3.03
2022-08-07T16:02:15.589Z,4.28
2022-08-07T16:04:46.595Z,3.17
2022-08-07T16:08:29.018Z,3.17
2022-08-07T16:10:14.660Z,2.88
2022-08-07T16:13:05.576Z,2.78
2022-08-07T16:15:58.948Z,2.40
2022-08-07T16:18:43.466Z,4.47
2022-08-07T16:22:01.994Z,3.03
2022-08-07T16:24:40.604Z,5.20
2022-08-07T16:27:40.728Z,6.15
2022-08-07T16:30:30.376Z,3.72
2022-08-07T16:34:02.282Z,2.58
2022-08-07T16:36:20.137Z,3.45
2022-08-07T16:39:00.652Z,3.38
2022-08-07T16:41:41.104Z,3.42
2022-08-07T16:44:40.460Z,4.68
2022-08-07T16:47:40.254Z,2.85
2022-08-07T16:50:20.281Z,4.53
2022-08-07T16:53:14.774Z,3.58
2022-08-07T16:55:53.494Z,4.82
2022-08-07T16:58:37.697Z,4.35
2022-08-07T17:01:15.838Z,2.80
2022-08-07T17:03:59.677Z,5.05
2022-08-07T17:06:58.027Z,5.47
2022-08-07T17:12:43.634Z,4.47
2022-08-07T17:17:53.338Z,4.00
2022-08-07T17:20:29.797Z,3.67
2022-08-07T17:23:15.830Z,4.20
2022-08-07T17:25:53.301Z,5.93
2022-08-07T17:28:31.206Z,6.18
2022-08-07T17:31:16.689Z,3.60
2022-08-07T17:34:33.467Z,4.40
2022-08-07T17:36:57.964Z,3.78
2022-08-07T17:39:58.687Z,8.32
2022-08-07T17:42:59.674Z,4.90
2022-08-07T17:45:29.774Z,6.50
2022-08-07T17:48:02.351Z,3.08
2022-08-07T17:50:31.679Z,3.83
2022-08-07T17:53:59.550Z,4.03
2022-08-07T17:56:15.246Z,6.43
2022-08-07T17:58:51.110Z,5.47
2022-08-07T18:01:36.822Z,4.15
2022-08-07T18:04:16.684Z,3.83
2022-08-07T18:06:58.035Z,3.83
2022-08-07T18:09:48.398Z,4.10
2022-08-07T18:12:32.033Z,3.20
2022-08-07T18:15:09.812Z,4.22
2022-08-07T18:18:46.500Z,2.92
2022-08-07T18:21:12.329Z,5.00
2022-08-07T18:23:56.601Z,4.57
2022-08-07T18:26:38.851Z,3.45
2022-08-07T18:30:06.079Z,3.67
2022-08-07T18:32:24.223Z,8.77
2022-08-07T18:35:10.878Z,4.57
2022-08-07T18:38:58.895Z,4.13
2022-08-07T18:40:53.905Z,3.75
2022-08-07T18:43:43.216Z,6.68
2022-08-07T18:46:25.593Z,6.65
2022-08-07T18:50:30.173Z,6.75
2022-08-07T18:52:38.173Z,4.53
2022-08-07T18:55:41.632Z,13.68
2022-08-07T18:57:58.531Z,6.72
2022-08-07T19:00:36.346Z,4.78
2022-08-07T19:03:12.492Z,4.97
2022-08-07T19:06:04.180Z,4.47
2022-08-07T19:08:52.176Z,4.38
2022-08-07T19:11:35.922Z,6.53
2022-08-07T19:14:16.831Z,7.43
2022-08-07T19:17:06.466Z,6.75
2022-08-07T19:19:42.166Z,7.65
2022-08-07T19:22:11.190Z,5.05
2022-08-07T19:24:48.910Z,7.35
2022-08-07T19:28:30.584Z,5.75
2022-08-07T19:31:05.262Z,6.47
2022-08-07T19:33:10.319Z,8.15
2022-08-07T19:35:44.267Z,4.90
2022-08-07T19:38:17.013Z,5.18
2022-08-07T19:40:49.661Z,5.80
2022-08-07T19:43:21.699Z,6.80
2022-08-07T19:46:09.811Z,5.32
2022-08-07T19:48:44.228Z,7.28
2022-08-07T19:51:20.226Z,5.25
2022-08-07T19:54:32.757Z,6.72
2022-08-07T19:57:52.057Z,6.28
2022-08-07T19:59:41.082Z,5.45
2022-08-07T20:02:19.457Z,6.07
2022-08-07T20:04:50.082Z,7.00
2022-08-07T20:07:23.521Z,5.07
2022-08-07T20:10:35.818Z,4.75
2022-08-07T20:12:42.627Z,11.30
2022-08-07T20:15:18.855Z,5.97
2022-08-07T20:17:56.353Z,6.15
2022-08-07T20:20:32.045Z,6.80
2022-08-07T20:23:23.122Z,6.65
2022-08-07T20:25:53.520Z,9.95
2022-08-07T20:28:21.199Z,6.72
2022-08-07T20:30:57.238Z,7.07
2022-08-07T20:33:38.005Z,6.88
2022-08-07T20:36:07.249Z,7.38
2022-08-07T20:38:35.584Z,10.32
2022-08-07T20:41:25.452Z,7.97
2022-08-07T20:43:57.426Z,9.80
2022-08-07T20:46:33.395Z,9.52
2022-08-07T20:49:57.799Z,7.30
2022-08-07T20:51:51.117Z,9.73
2022-08-07T20:54:29.601Z,9.30
2022-08-07T20:56:59.248Z,8.82
2022-08-07T21:00:08.102Z,6.60
2022-08-07T21:02:39.141Z,8.45
2022-08-07T21:05:16.640Z,7.18
2022-08-07T21:07:49.601Z,7.72
2022-08-07T21:10:25.179Z,8.55
2022-08-07T21:12:58.758Z,6.38
2022-08-07T21:15:58.194Z,6.13
2022-08-07T21:18:25.503Z,7.15
2022-08-07T21:20:56.817Z,8.77
2022-08-07T21:23:42.733Z,10.85
2022-08-07T21:26:26.923Z,6.28
2022-08-07T21:29:04.006Z,7.53
2022-08-07T21:32:47.200Z,7.63
2022-08-07T21:34:52.194Z,6.53
2022-08-07T21:37:21.799Z,7.28
2022-08-07T21:40:03.349Z,8.30
2022-08-07T21:42:52.873Z,7.65
2022-08-07T21:46:03.535Z,8.95
2022-08-07T21:48:41.472Z,6.30
2022-08-07T21:51:25.933Z,6.70
2022-08-07T21:53:55.997Z,9.20
2022-08-07T21:56:47.009Z,6.32
2022-08-07T21:59:16.068Z,8.25
2022-08-07T22:02:10.420Z,7.85
2022-08-07T22:04:54.021Z,6.85
2022-08-07T22:07:31.539Z,8.82
2022-08-07T22:10:22.216Z,7.55
2022-08-07T22:12:55.229Z,8.40
2022-08-07T22:16:39.780Z,7.75
2022-08-07T22:18:19.795Z,8.95
2022-08-07T22:21:20.461Z,8.57
2022-08-07T22:23:51.278Z,9.95
2022-08-07T22:26:30.593Z,7.68
2022-08-07T22:29:13.751Z,7.38
2022-08-07T22:32:00.284Z,8.85
2022-08-07T22:34:39.902Z,7.50
2022-08-07T22:40:05.347Z,12.07
2022-08-07T22:42:34.489Z,8.43
2022-08-07T22:45:04.196Z,9.98
2022-08-07T22:47:52.521Z,11.23
2022-08-07T22:50:28.840Z,9.02
2022-08-07T22:53:01.107Z,14.27
2022-08-07T22:55:34.284Z,6.65
2022-08-07T22:58:15.992Z,7.68
2022-08-07T23:00:43.450Z,9.70
2022-08-07T23:03:13.080Z,9.23
2022-08-07T23:06:07.353Z,8.70
2022-08-07T23:08:30.205Z,10.40
2022-08-07T23:11:08.557Z,11.23
2022-08-07T23:14:14.952Z,10.57
2022-08-07T23:16:54.622Z,8.73
2022-08-07T23:20:02.969Z,10.57
2022-08-07T23:22:34.077Z,7.50
2022-08-07T23:25:28.238Z,11.57
2022-08-07T23:28:21.467Z,8.07
2022-08-07T23:31:05.756Z,6.90
2022-08-07T23:34:21.551Z,13.25
2022-08-07T23:37:19.855Z,11.27
2022-08-07T23:39:47.756Z,10.38
2022-08-07T23:42:41.303Z,10.30
2022-08-07T23:45:50.053Z,9.40
2022-08-07T23:48:26.154Z,9.35
2022-08-07T23:52:58.509Z,10.45
2022-08-07T23:54:44.020Z,10.27
2022-08-07T23:57:14.564Z,9.48
